Map

Track Data

SID SEASON NUMBER BASIN SUBBASIN NAME ISO_TIME NATURE LAT LON WMO_WIND WMO_PRES WMO_AGENCY TRACK_TYPE DIST2LAND LANDFALL IFLAG USA_AGENCY USA_ATCF_ID USA_LAT USA_LON USA_RECORD USA_STATUS USA_WIND USA_PRES USA_SSHS USA_R34_NE USA_R34_SE USA_R34_SW USA_R34_NW USA_R50_NE USA_R50_SE USA_R50_SW USA_R50_NW USA_R64_NE USA_R64_SE USA_R64_SW USA_R64_NW USA_POCI USA_ROCI USA_RMW USA_EYE TOKYO_LAT TOKYO_LON TOKYO_GRADE TOKYO_WIND TOKYO_PRES TOKYO_R50_DIR TOKYO_R50_LONG TOKYO_R50_SHORT TOKYO_R30_DIR TOKYO_R30_LONG TOKYO_R30_SHORT TOKYO_LAND CMA_LAT CMA_LON CMA_CAT CMA_WIND CMA_PRES HKO_LAT HKO_LON HKO_CAT HKO_WIND HKO_PRES NEWDELHI_LAT NEWDELHI_LON NEWDELHI_GRADE NEWDELHI_WIND NEWDELHI_PRES NEWDELHI_CI NEWDELHI_DP NEWDELHI_POCI REUNION_LAT REUNION_LON REUNION_TYPE REUNION_WIND REUNION_PRES REUNION_TNUM REUNION_CI REUNION_RMW REUNION_R34_NE REUNION_R34_SE REUNION_R34_SW REUNION_R34_NW REUNION_R50_NE REUNION_R50_SE REUNION_R50_SW REUNION_R50_NW REUNION_R64_NE REUNION_R64_SE REUNION_R64_SW REUNION_R64_NW BOM_LAT BOM_LON BOM_TYPE BOM_WIND BOM_PRES BOM_TNUM BOM_CI BOM_RMW BOM_R34_NE BOM_R34_SE BOM_R34_SW BOM_R34_NW BOM_R50_NE BOM_R50_SE BOM_R50_SW BOM_R50_NW BOM_R64_NE BOM_R64_SE BOM_R64_SW BOM_R64_NW BOM_ROCI BOM_POCI BOM_EYE BOM_POS_METHOD BOM_PRES_METHOD NADI_LAT NADI_LON NADI_CAT NADI_WIND NADI_PRES WELLINGTON_LAT WELLINGTON_LON WELLINGTON_WIND WELLINGTON_PRES DS824_LAT DS824_LON DS824_STAGE DS824_WIND DS824_PRES TD9636_LAT TD9636_LON TD9636_STAGE TD9636_WIND TD9636_PRES TD9635_LAT TD9635_LON TD9635_WIND TD9635_PRES TD9635_ROCI NEUMANN_LAT NEUMANN_LON NEUMANN_CLASS NEUMANN_WIND NEUMANN_PRES MLC_LAT MLC_LON MLC_CLASS MLC_WIND MLC_PRES USA_GUST BOM_GUST BOM_GUST_PER REUNION_GUST REUNION_GUST_PER USA_SEAHGT USA_SEARAD_NE USA_SEARAD_SE USA_SEARAD_SW USA_SEARAD_NW STORM_SPEED STORM_DIR
1924042S11064 1924 4 SI MM NOT_NAMED 1924-02-11 06:00:00 NR -11.1000 64.2000 reunion main 1224 1193 _____O________ -1 -11.1000 64.2000 99 9.90000 6 227
1924042S11064 1924 4 SI MM NOT_NAMED 1924-02-11 09:00:00 NR -11.3069 63.9745 main 1193 1162 _____P________ -1 -11.3069 63.9745 99 6 227
1924042S11064 1924 4 SI MM NOT_NAMED 1924-02-11 12:00:00 NR -11.5142 63.7476 main 1156 1126 _____P________ -1 -11.5142 63.7476 99 6 227
1924042S11064 1924 4 SI MM NOT_NAMED 1924-02-11 15:00:00 NR -11.7226 63.5184 main 1126 1095 _____P________ -1 -11.7226 63.5184 99 6 227
1924042S11064 1924 4 SI MM NOT_NAMED 1924-02-11 18:00:00 NR -11.9325 63.2857 main 1095 1064 _____P________ -1 -11.9325 63.2857 99 6 227
1924042S11064 1924 4 SI MM NOT_NAMED 1924-02-11 21:00:00 NR -12.1447 63.0486 main 1059 1028 _____P________ -1 -12.1447 63.0486 99 6 228
1924042S11064 1924 4 SI MM NOT_NAMED 1924-02-12 00:00:00 NR -12.3596 62.8060 main 1019 988 _____P________ -1 -12.3596 62.8060 99 6 228
1924042S11064 1924 4 SI MM NOT_NAMED 1924-02-12 03:00:00 NR -12.5778 62.5568 main 988 952 _____P________ -1 -12.5778 62.5568 99 7 228
1924042S11064 1924 4 SI MM NOT_NAMED 1924-02-12 06:00:00 NR -12.8000 62.3000 reunion main 952 922 _____O________ -1 -12.8000 62.3000 99 9.90000 7 229
1924042S11064 1924 4 SI MM NOT_NAMED 1924-02-12 09:00:00 NR -13.0271 62.0354 main 917 887 _____P________ -1 -13.0271 62.0354 99 7 228
1924042S11064 1924 4 SI MM NOT_NAMED 1924-02-12 12:00:00 NR -13.2617 61.7664 main 877 842 _____P________ -1 -13.2617 61.7664 99 7 227
1924042S11064 1924 4 SI MM NOT_NAMED 1924-02-12 15:00:00 NR -13.5069 61.4972 main 842 797 _____P________ -1 -13.5069 61.4972 99 7 226
1924042S11064 1924 4 SI MM NOT_NAMED 1924-02-12 18:00:00 NR -13.7657 61.2322 main 797 767 _____P________ -1 -13.7657 61.2322 99 7 223
1924042S11064 1924 4 SI MM NOT_NAMED 1924-02-12 21:00:00 NR -14.0413 60.9757 main 767 722 _____P________ -1 -14.0413 60.9757 99 8 220
1924042S11064 1924 4 SI MM NOT_NAMED 1924-02-13 00:00:00 NR -14.3368 60.7320 main 722 683 _____P________ -1 -14.3368 60.7320 99 8 217
1924042S11064 1924 4 SI MM NOT_NAMED 1924-02-13 03:00:00 NR -14.6553 60.5053 main 673 633 _____P________ -1 -14.6553 60.5053 99 8 212
1924042S11064 1924 4 SI MM NOT_NAMED 1924-02-13 06:00:00 NR -15.0000 60.3000 reunion main 633 584 _____O________ -1 -15.0000 60.3000 99 9.90000 9 209
1924042S11064 1924 4 SI MM NOT_NAMED 1924-02-13 09:00:00 NR -15.4149 60.0761 main 584 534 _____P________ -1 -15.4149 60.0761 99 10 206
1924042S11064 1924 4 SI MM NOT_NAMED 1924-02-13 12:00:00 NR -15.8621 59.8668 main 524 474 _____P________ -1 -15.8621 59.8668 99 10 203
1924042S11064 1924 4 SI MM NOT_NAMED 1924-02-13 15:00:00 NR -16.3286 59.6786 main 474 415 _____P________ -1 -16.3286 59.6786 99 10 200
1924042S11064 1924 4 SI MM NOT_NAMED 1924-02-13 18:00:00 NR -16.8015 59.5186 main 415 370 _____P________ -1 -16.8015 59.5186 99 10 196
1924042S11064 1924 4 SI MM NOT_NAMED 1924-02-13 21:00:00 NR -17.2680 59.3936 main 360 316 _____P________ -1 -17.2680 59.3936 99 9 192
1924042S11064 1924 4 SI MM NOT_NAMED 1924-02-14 00:00:00 NR -17.7152 59.3107 main 316 279 _____P________ -1 -17.7152 59.3107 99 9 187
1924042S11064 1924 4 SI MM NOT_NAMED 1924-02-14 03:00:00 NR -18.1301 59.2771 main 279 245 _____P________ -1 -18.1301 59.2771 99 8 182
1924042S11064 1924 4 SI MM NOT_NAMED 1924-02-14 06:00:00 NR -18.5000 59.3000 reunion main 245 229 _____O________ -1 -18.5000 59.3000 99 9.90000 7 173
1924042S11064 1924 4 SI MM NOT_NAMED 1924-02-14 09:00:00 NR -18.7894 59.3632 main 230 216 _____P________ -1 -18.7894 59.3632 99 6 162
1924042S11064 1924 4 SI MM NOT_NAMED 1924-02-14 12:00:00 NR -19.0378 59.4822 main 225 219 _____P________ -1 -19.0378 59.4822 99 5 149
1924042S11064 1924 4 SI MM NOT_NAMED 1924-02-14 15:00:00 NR -19.2513 59.6523 main 227 227 _____P________ -1 -19.2513 59.6523 99 5 137
1924042S11064 1924 4 SI MM NOT_NAMED 1924-02-14 18:00:00 NR -19.4357 59.8687 main 241 237 _____P________ -1 -19.4357 59.8687 99 6 128
1924042S11064 1924 4 SI MM NOT_NAMED 1924-02-14 21:00:00 NR -19.5968 60.1265 main 252 252 _____P________ -1 -19.5968 60.1265 99 6 120
1924042S11064 1924 4 SI MM NOT_NAMED 1924-02-15 00:00:00 NR -19.7407 60.4209 main 279 279 _____P________ -1 -19.7407 60.4209 99 6 115
1924042S11064 1924 4 SI MM NOT_NAMED 1924-02-15 03:00:00 NR -19.8731 60.7470 main 306 306 _____P________ -1 -19.8731 60.7470 99 7 112
1924042S11064 1924 4 SI MM NOT_NAMED 1924-02-15 06:00:00 NR -20.0000 61.1000 reunion main 346 346 _____O________ -1 -20.0000 61.1000 99 9.90000 8 113
1924042S11064 1924 4 SI MM NOT_NAMED 1924-02-15 09:00:00 NR -20.1693 61.4975 main 386 386 _____P________ -1 -20.1693 61.4975 99 9 113
1924042S11064 1924 4 SI MM NOT_NAMED 1924-02-15 12:00:00 NR -20.3302 61.9347 main 427 427 _____P________ -1 -20.3302 61.9347 99 9 110
1924042S11064 1924 4 SI MM NOT_NAMED 1924-02-15 15:00:00 NR -20.4805 62.3959 main 479 479 _____P________ -1 -20.4805 62.3959 99 9 108
1924042S11064 1924 4 SI MM NOT_NAMED 1924-02-15 18:00:00 NR -20.6179 62.8650 main 532 532 _____P________ -1 -20.6179 62.8650 99 9 107
1924042S11064 1924 4 SI MM NOT_NAMED 1924-02-15 21:00:00 NR -20.7403 63.3261 main 574 574 _____P________ -1 -20.7403 63.3261 99 9 105
1924042S11064 1924 4 SI MM NOT_NAMED 1924-02-16 00:00:00 NR -20.8459 63.7631 main 627 627 _____P________ -1 -20.8459 63.7631 99 8 104
1924042S11064 1924 4 SI MM NOT_NAMED 1924-02-16 03:00:00 NR -20.9330 64.1598 main 669 669 _____P________ -1 -20.9330 64.1598 99 7 103
1924042S11064 1924 4 SI MM NOT_NAMED 1924-02-16 06:00:00 NR -21.0000 64.5000 reunion main 701 701 _____O________ -1 -21.0000 64.5000 99 9.90000 6 101
1924042S11064 1924 4 SI MM NOT_NAMED 1924-02-16 09:00:00 NR -21.0461 64.7718 main 732 732 _____P________ -1 -21.0461 64.7718 99 5 99
1924042S11064 1924 4 SI MM NOT_NAMED 1924-02-16 12:00:00 NR -21.0736 64.9799 main 754 754 _____P________ -1 -21.0736 64.9799 99 3 97
1924042S11064 1924 4 SI MM NOT_NAMED 1924-02-16 15:00:00 NR -21.0852 65.1335 main 764 764 _____P________ -1 -21.0852 65.1335 99 2 92
1924042S11064 1924 4 SI MM NOT_NAMED 1924-02-16 18:00:00 NR -21.0837 65.2415 main 774 774 _____P________ -1 -21.0837 65.2415 99 2 85
1924042S11064 1924 4 SI MM NOT_NAMED 1924-02-16 21:00:00 NR -21.0719 65.3130 main 785 785 _____P________ -1 -21.0719 65.3130 99 1 74
1924042S11064 1924 4 SI MM NOT_NAMED 1924-02-17 00:00:00 NR -21.0522 65.3572 main 795 794 _____P________ -1 -21.0522 65.3572 99 1 56
1924042S11064 1924 4 SI MM NOT_NAMED 1924-02-17 03:00:00 NR -21.0274 65.3832 main 794 794 _____P________ -1 -21.0274 65.3832 99 1 40
1924042S11064 1924 4 SI MM NOT_NAMED 1924-02-17 06:00:00 NR -21.0000 65.4000 reunion main 794 _____O________ -1 -21.0000 65.4000 99 9.90000 1 0

About IBTrACS Database

This database is a web-friendly format of International Best Track Archive for Climate Stewardship (IBTrACS), a global best track data archive curated by NOAA dating back to 1842.

Updated: 2021-11-26